• Join FlightAware (Why Join?)
  • Login
  • US Flag 
06:35PM EDT


 

Airport Tracker/Info


-or-


 

Live Flight TrackerFlight Track Log ✈ UAL256 ✈ 23-Jun-2013 ✈ KDEN - KSFO

Flight Track Log - Related Links

Times and Time Zones

All times are in EDT time to prevent confusion due to time zone crossing. See the UAL256 flight status page for this flight to view local times or setup timezone preferences in your user account.

Time Position Orientation Groundspeed Altitude Reporting Facility
EDT Latitude Longitude Course Direction KTS MPH feet Rate Location/Type
08:08AM 39.9333 -104.7167 270° West 212 244 7,100  Level Denver TRACON
08:09AM 39.9333 -104.8167 270° West 265 305 9,000 1,860 Climbing Denver TRACON
08:10AM 39.9333 -104.9000 270° West 304 350 10,700 1,980 Climbing Denver TRACON
08:11AM 39.9167 -105.0333 261° West 336 387 12,800 2,160 Climbing Denver TRACON
08:12AM 39.9111 -105.1550 267° West 333 383 15,400 1,860 Climbing Denver Center
08:13AM 39.8997 -105.2822 263° West 354 407 16,800 1,620 Climbing Denver Center
08:14AM 39.8872 -105.4161 263° West 372 428 18,700 1,920 Climbing Denver Center
08:15AM 39.8761 -105.5489 264° West 372 428 20,700 1,920 Climbing Denver Center
08:16AM 39.8631 -105.6992 264° West 383 441 22,600 1,620 Climbing Denver Center
08:17AM 39.8508 -105.8247 263° West 387 445 24,000 1,500 Climbing Denver Center
08:18AM 39.8381 -105.9639 263° West 390 449 25,600 1,440 Climbing Denver Center
08:19AM 39.8261 -106.1081 264° West 401 461 27,000 1,260 Climbing Denver Center
08:20AM 39.8139 -106.2536 264° West 405 466 28,200 1,080 Climbing Denver Center
08:21AM 39.7997 -106.4019 263° West 413 475 29,200 1,020 Climbing Denver Center
08:22AM 39.7872 -106.5483 264° West 424 488 30,300 1,140 Climbing Denver Center
08:23AM 39.7708 -106.6994 262° West 426 490 31,600 1,320 Climbing Denver Center
08:24AM 39.7511 -106.8783 262° West 423 487 33,000 1,260 Climbing Denver Center
08:25AM 39.7342 -107.0269 262° West 422 486 34,200 1,080 Climbing Denver Center
08:26AM 39.7181 -107.1728 262° West 414 476 35,200 840 Climbing Denver Center
08:27AM 39.7017 -107.3136 261° West 406 467 36,000 360 Climbing Denver Center
08:28AM 39.6858 -107.4508 262° West 401 461 36,000  Level Denver Center
08:29AM 39.6669 -107.6114 261° West 402 463 36,000  Level Denver Center
08:30AM 39.6511 -107.7506 262° West 405 466 36,000  Level Denver Center
08:31AM 39.6344 -107.8892 261° West 407 468 36,000  Level Denver Center
08:32AM 39.6144 -108.0519 261° West 408 470 36,000  Level Denver Center
08:33AM 39.5978 -108.1897 261° West 406 467 36,000  Level Denver Center
08:34AM 39.5806 -108.3289 261° West 405 466 36,000  Level Denver Center
08:35AM 39.5608 -108.4911 261° West 405 466 36,000  Level Denver Center
08:36AM 39.5431 -108.6325 261° West 410 472 36,000  Level Denver Center
08:37AM 39.5236 -108.7761 260° West 414 476 36,000  Level Denver Center
08:38AM 39.5078 -108.8969 260° West 418 481 36,000  Level Salt Lake Center
08:39AM 39.4906 -109.0375 261° West 413 475 36,000  Level Salt Lake Center
08:40AM 39.4694 -109.2003 261° West 410 472 36,000  Level Salt Lake Center
08:41AM 39.4519 -109.3383 261° West 407 468 36,000  Level Salt Lake Center
08:42AM 39.4331 -109.4769 260° West 409 471 36,000  Level Salt Lake Center
08:43AM 39.4153 -109.6164 261° West 409 471 36,000  Level Salt Lake Center
08:44AM 39.3928 -109.7778 260° West 409 471 36,000  Level Salt Lake Center
08:45AM 39.3733 -109.9158 260° West 408 470 36,000  Level Salt Lake Center
08:46AM 39.3544 -110.0553 260° West 410 472 36,000  Level Salt Lake Center
08:47AM 39.3319 -110.2175 260° West 412 474 36,000  Level Salt Lake Center
08:48AM 39.3111 -110.3578 259° West 415 478 36,000  Level Salt Lake Center
08:49AM 39.2919 -110.4986 260° West 416 479 36,000  Level Salt Lake Center
08:50AM 39.2692 -110.6625 260° West 416 479 36,000  Level Salt Lake Center
08:51AM 39.2489 -110.8028 259° West 415 478 36,000  Level Salt Lake Center
08:52AM 39.2267 -110.9422 258° West 415 478 36,000  Level Salt Lake Center
08:53AM 39.2069 -111.0825 260° West 414 476 36,000  Level Salt Lake Center
08:54AM 39.1825 -111.2456 259° West 415 478 36,000  Level Salt Lake Center
08:55AM 39.1642 -111.3775 260° West 415 478 36,000  Level Salt Lake Center
08:56AM 39.1422 -111.5214 259° West 414 476 36,000  Level Salt Lake Center
08:57AM 39.1197 -111.6656 259° West 412 474 36,000  Level Salt Lake Center
08:58AM 39.0972 -111.8106 259° West 414 476 36,000  Level Salt Lake Center
08:59AM 39.0736 -111.9547 258° West 414 476 36,000  Level Salt Lake Center
09:00AM 39.0514 -112.0997 259° West 416 479 36,000  Level Salt Lake Center
09:01AM 39.0242 -112.2719 259° West 412 474 36,000  Level Salt Lake Center
09:02AM 39.0003 -112.4164 258° West 414 476 36,000  Level Salt Lake Center
09:03AM 38.9772 -112.5597 258° West 412 474 36,000  Level Salt Lake Center
09:04AM 38.9544 -112.7031 258° West 412 474 36,000  Level Salt Lake Center
09:05AM 38.9308 -112.8467 258° West 412 474 36,000  Level Salt Lake Center
09:06AM 38.9067 -112.9917 258° West 416 479 36,000  Level Salt Lake Center
09:07AM 38.8822 -113.1356 258° West 416 479 36,000  Level Salt Lake Center
09:08AM 38.8581 -113.2808 258° West 418 481 36,000  Level Salt Lake Center
09:09AM 38.8331 -113.4269 258° West 421 484 36,000  Level Salt Lake Center
09:10AM 38.8083 -113.5714 258° West 419 482 36,000  Level Salt Lake Center
09:11AM 38.7839 -113.7153 258° West 417 480 36,000  Level Salt Lake Center
09:12AM 38.7589 -113.8600 258° West 419 482 36,000  Level Salt Lake Center
09:13AM 38.7333 -114.0058 257° West 421 484 36,000  Level Salt Lake Center
09:14AM 38.7069 -114.1528 257° West 424 488 36,000  Level Salt Lake Center
09:15AM 38.6808 -114.2997 257° West 426 490 36,000  Level Salt Lake Center
09:16AM 38.6539 -114.4464 257° West 426 490 36,000  Level Salt Lake Center
09:17AM 38.6275 -114.5953 257° West 430 495 36,000  Level Salt Lake Center
09:18AM 38.5944 -114.7725 257° West 429 494 36,000  Level Salt Lake Center
09:19AM 38.5675 -114.9192 257° West 427 491 36,000  Level Salt Lake Center
09:20AM 38.5408 -115.0647 257° West 424 488 36,000  Level Salt Lake Center
09:21AM 38.5133 -115.2122 257° West 427 491 36,000  Level Salt Lake Center
09:22AM 38.4878 -115.3456 256° West 430 495 36,000  Level Salt Lake Center
09:23AM 38.4589 -115.4947 256° West 433 498 36,000  Level Salt Lake Center
09:24AM 38.4314 -115.6425 257° West 430 495 36,000  Level Salt Lake Center
09:25AM 38.4028 -115.7914 256° West 431 496 36,000  Level Salt Lake Center
09:26AM 38.3739 -115.9392 256° West 431 496 36,000  Level Salt Lake Center
09:27AM 38.3458 -116.0867 256° West 429 494 36,000  Level Salt Lake Center
09:28AM 38.3103 -116.2636 256° West 430 495 36,000  Level Salt Lake Center
09:29AM 38.2808 -116.4097 256° West 427 491 36,000  Level Salt Lake Center
09:30AM 38.2525 -116.5564 256° West 427 491 36,000  Level Salt Lake Center
09:31AM 38.2292 -116.6731 256° West 425 489 36,000  Level Oakland Center
09:32AM 38.1997 -116.8194 256° West 427 491 36,000  Level Oakland Center
09:33AM 38.1708 -116.9633 256° West 423 487 36,000  Level Oakland Center
09:34AM 38.1425 -117.1042 256° West 421 484 36,000  Level Oakland Center
09:35AM 38.1114 -117.2503 255° West 427 491 36,000  Level Oakland Center
09:36AM 38.0847 -117.3808 255° West 424 488 36,000  Level Oakland Center
09:37AM 38.0553 -117.5228 255° West 417 480 36,000  Level Oakland Center
09:38AM 38.0250 -117.6667 255° West 422 486 36,000  Level Oakland Center
09:39AM 37.9986 -117.8103 257° West 418 481 36,000  Level Oakland Center
09:40AM 37.9844 -117.9572 263° West 419 482 36,000  Level Oakland Center
09:41AM 37.9642 -118.1347 262° West 424 488 36,000  Level Oakland Center
09:42AM 37.9497 -118.2817 263° West 422 486 36,000  Level Oakland Center
09:43AM 37.9322 -118.4286 261° West 422 486 36,000  Level Oakland Center
09:44AM 37.9161 -118.5756 262° West 421 484 36,000  Level Oakland Center
09:45AM 37.8992 -118.7222 262° West 422 486 36,000  Level Oakland Center
09:46AM 37.8831 -118.8694 262° West 421 484 36,000  Level Oakland Center
09:47AM 37.8678 -119.0014 262° West 422 486 36,000  Level Oakland Center
09:48AM 37.8514 -119.1478 262° West 419 482 36,000  Level Oakland Center
09:49AM 37.8342 -119.2922 261° West 419 482 36,000  Level Oakland Center
09:50AM 37.8178 -119.4378 262° West 417 480 36,000  Level Oakland Center
09:51AM 37.8008 -119.5789 261° West 407 468 36,000  Level Oakland Center
09:52AM 37.7828 -119.7233 261° West 414 476 36,000 -480 Level Oakland Center
09:53AM 37.7667 -119.8675 262° West 414 476 35,100 -1,800 Descending Oakland Center
09:54AM 37.7442 -120.0414 261° West 418 481 32,400 -2,340 Descending Oakland Center
09:55AM 37.7264 -120.1831 261° West 411 473 30,400 -1,980 Descending Oakland Center
09:56AM 37.7092 -120.3225 261° West 403 464 28,500 -1,980 Descending Oakland Center
09:57AM 37.6931 -120.4564 261° West 391 450 26,500 -2,040 Descending Oakland Center
09:58AM 37.6747 -120.5892 260° West 384 442 24,400 -2,100 Descending Oakland Center
09:59AM 37.6667 -120.7167 265° West 381 438 22,500 -2,280 Descending Northern Cal TRACON
10:00AM 37.6500 -120.8333 260° West 381 438 20,100 -1,380 Descending Northern Cal TRACON
10:01AM 37.6333 -120.9667 261° West 358 412 19,800 -1,620 Descending Northern Cal TRACON
10:02AM 37.6167 -121.0833 260° West 378 435 17,100 -2,700 Descending Northern Cal TRACON
10:03AM 37.6000 -121.2167 261° West 372 428 14,400 -2,340 Descending Northern Cal TRACON
10:04AM 37.5833 -121.3500 261° West 358 412 12,200 -1,800 Descending Northern Cal TRACON
10:05AM 37.5667 -121.4667 260° West 345 397 10,900 -600 Descending Northern Cal TRACON
10:06AM 37.5500 -121.5667 258° West 306 352 11,000  Climbing Northern Cal TRACON
10:07AM 37.5500 -121.6500 270° West 276 318 11,000 -360 Level Northern Cal TRACON
10:08AM 37.5000 -121.7333 233° Southwest 244 281 10,400 -600 Descending Northern Cal TRACON
10:09AM 37.4667 -121.7833 230° Southwest 223 257 9,900 -960 Descending Northern Cal TRACON
10:10AM 37.4500 -121.8500 253° West 204 235 8,500 -960 Descending Northern Cal TRACON
10:11AM 37.4333 -121.9167 253° West 203 234 8,000 -780 Descending Northern Cal TRACON
10:12AM 37.4500 -121.9833 287° West 198 228 7,100 -960 Descending Northern Cal TRACON
10:13AM 37.4833 -122.0333 310° West 177 204 6,200 -960 Descending Northern Cal TRACON
10:14AM 37.5000 -122.0833 293° West 143 165 5,200 -1,200 Descending Northern Cal TRACON
10:15AM 37.5167 -122.1333 293° West 129 148 3,800 -1,080 Descending Northern Cal TRACON
10:16AM 37.5333 -122.1667 302° West 125 144 3,200 -780 Descending Northern Cal TRACON
10:17AM 37.5500 -122.2000 302° West 122 140 2,400 -840 Descending Northern Cal TRACON